createdAt,value
2022-08-17T09:35:20.740Z,4.22
2022-08-17T09:45:02.955Z,4.70
2022-08-17T09:47:53.794Z,4.20
2022-08-17T09:51:04.005Z,4.43
2022-08-17T09:53:44.583Z,4.40
2022-08-17T09:59:23.718Z,4.22
2022-08-17T10:02:28.362Z,4.40
2022-08-17T10:05:22.635Z,4.07
2022-08-17T10:08:03.386Z,3.83
2022-08-17T10:11:03.102Z,3.90
2022-08-17T10:13:39.030Z,4.00
2022-08-17T10:16:19.846Z,3.38
2022-08-17T10:19:07.651Z,3.70
2022-08-17T10:25:21.187Z,3.63
2022-08-17T10:27:52.004Z,3.13
2022-08-17T10:30:25.739Z,3.60
2022-08-17T10:32:56.780Z,3.95
2022-08-17T10:35:43.900Z,3.78
2022-08-17T10:38:45.587Z,3.63
2022-08-17T10:41:30.399Z,3.67
2022-08-17T10:44:38.758Z,3.55
2022-08-17T10:47:10.022Z,3.60
2022-08-17T10:49:50.003Z,3.92
2022-08-17T10:52:28.682Z,3.80
2022-08-17T10:54:58.321Z,3.85
2022-08-17T10:57:42.888Z,3.67
2022-08-17T11:00:27.106Z,3.70
2022-08-17T11:03:05.349Z,3.38
2022-08-17T11:06:00.767Z,3.20
2022-08-17T11:09:08.671Z,3.35
2022-08-17T11:11:47.907Z,3.65
2022-08-17T11:14:27.773Z,3.13
2022-08-17T11:17:05.575Z,3.65
2022-08-17T11:20:06.978Z,3.50
2022-08-17T11:23:01.991Z,3.28
2022-08-17T11:25:50.643Z,3.45
2022-08-17T11:28:35.371Z,3.53
2022-08-17T11:31:44.066Z,3.17
2022-08-17T11:34:23.288Z,6.85
2022-08-17T11:37:30.143Z,2.80
2022-08-17T11:40:36.362Z,3.20
2022-08-17T11:43:29.893Z,3.15
2022-08-17T11:46:28.292Z,3.33
2022-08-17T11:49:27.997Z,3.13
2022-08-17T11:52:03.962Z,2.92
2022-08-17T11:54:50.296Z,2.72
2022-08-17T11:57:27.312Z,3.30
2022-08-17T12:00:09.060Z,3.10
2022-08-17T12:02:50.932Z,2.90
2022-08-17T12:05:27.746Z,3.30
2022-08-17T12:08:39.437Z,3.28
2022-08-17T12:11:14.815Z,3.05
2022-08-17T12:13:50.270Z,3.10
2022-08-17T12:16:20.995Z,3.67
2022-08-17T12:19:25.925Z,2.97
2022-08-17T12:22:13.224Z,3.70
2022-08-17T12:25:23.996Z,3.35
2022-08-17T12:28:28.841Z,3.35
2022-08-17T12:31:22.509Z,3.40
2022-08-17T12:33:56.624Z,3.58
2022-08-17T12:36:27.792Z,3.28
2022-08-17T12:39:12.860Z,3.75
2022-08-17T12:41:52.354Z,3.60
2022-08-17T12:44:28.772Z,3.25
2022-08-17T12:47:09.407Z,3.55
2022-08-17T12:49:44.000Z,3.40
2022-08-17T12:52:26.632Z,3.15
2022-08-17T12:55:17.829Z,3.30
2022-08-17T12:57:52.302Z,3.35
2022-08-17T13:00:51.109Z,4.97
2022-08-17T13:03:29.249Z,3.30
2022-08-17T13:06:07.103Z,3.72
2022-08-17T13:08:43.561Z,3.47
2022-08-17T13:11:23.081Z,3.42
2022-08-17T13:13:57.123Z,3.00
2022-08-17T13:16:46.492Z,3.35
2022-08-17T13:19:39.933Z,3.25
2022-08-17T13:22:16.102Z,3.92
2022-08-17T13:24:53.931Z,3.05
2022-08-17T13:27:28.072Z,3.65
2022-08-17T13:30:01.996Z,3.22
2022-08-17T13:32:33.819Z,3.20
2022-08-17T13:35:32.250Z,3.35
2022-08-17T13:38:21.693Z,3.75
2022-08-17T13:40:55.895Z,3.35
2022-08-17T13:43:46.409Z,3.30
2022-08-17T13:46:41.539Z,3.92
2022-08-17T13:49:17.418Z,3.40
2022-08-17T13:51:54.239Z,3.72
2022-08-17T13:54:36.331Z,3.28
2022-08-17T13:57:10.987Z,3.80
2022-08-17T14:00:11.056Z,3.55
2022-08-17T14:02:45.319Z,3.28
2022-08-17T14:05:15.843Z,3.50
2022-08-17T14:07:45.952Z,3.33
2022-08-17T14:10:18.075Z,3.28
2022-08-17T14:12:55.490Z,3.25
2022-08-17T14:15:54.738Z,3.47
2022-08-17T14:18:50.526Z,3.40
2022-08-17T14:21:14.835Z,3.72
2022-08-17T14:23:54.638Z,3.45
2022-08-17T14:26:29.862Z,3.40
2022-08-17T14:28:58.948Z,3.75
2022-08-17T14:31:32.931Z,3.55
2022-08-17T14:34:07.210Z,3.55
2022-08-17T14:36:36.374Z,3.45
2022-08-17T14:39:07.120Z,3.53
2022-08-17T14:41:42.626Z,3.17
2022-08-17T14:44:16.767Z,3.20
2022-08-17T14:46:45.988Z,3.60
2022-08-17T14:49:18.370Z,3.55
2022-08-17T14:51:49.426Z,3.00
2022-08-17T14:54:33.168Z,3.13
2022-08-17T14:57:33.108Z,3.58
2022-08-17T14:59:59.224Z,3.65
2022-08-17T15:02:30.877Z,3.33
2022-08-17T15:05:01.391Z,3.30
2022-08-17T15:07:36.671Z,3.22
2022-08-17T15:10:09.810Z,3.28
2022-08-17T15:12:40.328Z,3.42
2022-08-17T15:15:13.540Z,3.33
2022-08-17T15:17:50.177Z,3.67
2022-08-17T15:20:24.675Z,3.63
2022-08-17T15:23:00.481Z,3.35
2022-08-17T15:25:31.590Z,3.30
2022-08-17T15:28:03.012Z,3.17
2022-08-17T15:30:39.531Z,3.00
2022-08-17T15:33:18.050Z,3.25
2022-08-17T15:35:51.204Z,3.30
2022-08-17T15:38:25.571Z,3.38
2022-08-17T15:40:57.832Z,3.75
2022-08-17T15:43:37.710Z,3.58
2022-08-17T15:46:45.204Z,3.03
2022-08-17T15:49:17.165Z,3.50
2022-08-17T15:51:50.498Z,3.92
2022-08-17T15:54:23.397Z,3.60
2022-08-17T15:56:57.145Z,3.20
2022-08-17T15:59:28.132Z,3.83
2022-08-17T16:03:09.884Z,3.20
2022-08-17T16:04:48.296Z,3.08
2022-08-17T16:07:27.786Z,3.75
2022-08-17T16:10:01.670Z,3.45
2022-08-17T16:12:36.198Z,3.60
2022-08-17T16:15:10.470Z,3.55
2022-08-17T16:17:46.765Z,3.35
2022-08-17T16:20:22.212Z,3.75
2022-08-17T16:22:53.793Z,3.20
2022-08-17T16:25:53.791Z,3.67
2022-08-17T16:28:35.868Z,3.38
2022-08-17T16:31:08.046Z,3.40
2022-08-17T16:33:40.331Z,3.60
2022-08-17T16:36:11.526Z,3.75
2022-08-17T16:38:47.167Z,3.50
2022-08-17T16:41:38.438Z,3.53
2022-08-17T16:44:10.308Z,3.33
2022-08-17T16:46:47.472Z,3.25
2022-08-17T16:49:35.441Z,3.50
2022-08-17T16:52:15.052Z,3.35
2022-08-17T16:55:05.222Z,3.35
2022-08-17T16:57:38.118Z,3.70
2022-08-17T17:00:17.893Z,3.25
2022-08-17T17:02:48.188Z,3.60
2022-08-17T17:05:44.388Z,3.83
2022-08-17T17:08:18.496Z,3.63
2022-08-17T17:10:50.147Z,3.25
2022-08-17T17:13:37.635Z,3.38
2022-08-17T17:16:15.943Z,3.95
2022-08-17T17:18:49.578Z,3.50
2022-08-17T17:21:19.532Z,3.83
2022-08-17T17:24:03.639Z,3.30
2022-08-17T17:27:15.682Z,3.97
2022-08-17T17:30:02.986Z,4.00
2022-08-17T17:32:41.224Z,3.30
2022-08-17T17:35:22.307Z,3.42
2022-08-17T17:37:54.724Z,3.30
2022-08-17T17:40:28.193Z,3.83
2022-08-17T17:43:09.253Z,3.40
2022-08-17T17:46:29.378Z,3.92
2022-08-17T17:49:00.846Z,3.50
2022-08-17T17:52:15.733Z,3.60
2022-08-17T17:55:10.146Z,3.58
2022-08-17T17:57:58.154Z,3.75
2022-08-17T18:00:50.122Z,3.65
2022-08-17T18:03:29.733Z,3.80
2022-08-17T18:06:06.725Z,3.30
2022-08-17T18:09:28.294Z,3.47
2022-08-17T18:12:35.200Z,3.38
2022-08-17T18:15:09.957Z,4.35
2022-08-17T18:18:16.705Z,4.57
2022-08-17T18:20:55.930Z,4.57
2022-08-17T18:23:28.589Z,4.88
2022-08-17T18:25:59.489Z,4.43
2022-08-17T18:28:43.921Z,3.63
2022-08-17T18:31:28.032Z,3.65
2022-08-17T18:37:40.523Z,3.53
2022-08-17T18:40:19.119Z,3.50
2022-08-17T18:43:03.714Z,3.92
2022-08-17T18:46:00.698Z,3.47
2022-08-17T18:48:41.153Z,3.35
2022-08-17T18:51:40.795Z,3.65
2022-08-17T18:55:13.534Z,3.75
2022-08-17T18:57:52.556Z,3.17
2022-08-17T19:00:22.499Z,4.03
2022-08-17T19:03:02.019Z,3.72
2022-08-17T19:05:43.750Z,3.88
2022-08-17T19:08:38.727Z,4.75
2022-08-17T19:11:20.711Z,4.20
2022-08-17T19:14:15.716Z,4.43
2022-08-17T19:16:55.398Z,4.32
2022-08-17T19:19:47.594Z,4.47
2022-08-17T19:22:30.983Z,4.70
2022-08-17T19:25:11.041Z,3.63
2022-08-17T19:27:57.328Z,4.28
2022-08-17T19:30:28.746Z,3.42
2022-08-17T19:33:03.472Z,3.75
2022-08-17T19:35:45.507Z,3.92
2022-08-17T19:38:45.768Z,3.53
2022-08-17T19:41:28.964Z,4.28
2022-08-17T19:44:21.791Z,5.47
2022-08-17T19:47:03.246Z,4.45
2022-08-17T19:50:12.959Z,4.35
2022-08-17T19:53:23.051Z,4.10
2022-08-17T19:56:22.537Z,4.35
2022-08-17T19:58:56.323Z,4.20
2022-08-17T20:01:49.258Z,4.88
2022-08-17T20:04:32.250Z,4.63
2022-08-17T20:07:15.549Z,4.18
2022-08-17T20:09:54.537Z,4.57
2022-08-17T20:12:26.686Z,4.68
2022-08-17T20:15:02.439Z,4.53
2022-08-17T20:17:34.404Z,3.78
2022-08-17T20:20:37.187Z,4.57
2022-08-17T20:23:33.526Z,4.13
2022-08-17T20:26:23.010Z,5.28
2022-08-17T20:29:37.728Z,4.28
2022-08-17T20:32:18.248Z,4.85
2022-08-17T20:34:52.197Z,4.18
2022-08-17T20:37:20.512Z,4.47
2022-08-17T20:39:51.075Z,4.50
2022-08-17T20:42:22.015Z,4.35
2022-08-17T20:45:01.568Z,4.15
2022-08-17T20:47:36.422Z,4.32
2022-08-17T20:50:20.133Z,5.05
2022-08-17T20:53:09.792Z,5.45
2022-08-17T20:55:51.365Z,4.30
2022-08-17T20:58:30.649Z,4.57
2022-08-17T21:01:02.103Z,4.95
2022-08-17T21:03:40.018Z,5.03
2022-08-17T21:06:23.335Z,5.50
2022-08-17T21:09:15.051Z,4.80
2022-08-17T21:12:04.898Z,4.18
2022-08-17T21:15:04.076Z,5.20
2022-08-17T21:17:40.174Z,5.57
2022-08-17T21:20:12.869Z,5.80
2022-08-17T21:23:22.223Z,5.78
2022-08-17T21:26:03.196Z,6.32
2022-08-17T21:29:00.473Z,6.32
2022-08-17T21:31:35.330Z,6.63
2022-08-17T21:34:18.594Z,6.45
2022-08-17T21:36:51.012Z,6.97
2022-08-17T21:39:33.120Z,6.10
2022-08-17T21:42:03.535Z,6.63
2022-08-17T21:44:39.525Z,6.38
2022-08-17T21:47:28.842Z,6.67
2022-08-17T21:50:14.044Z,6.10
2022-08-17T21:52:44.646Z,5.95
2022-08-17T21:55:33.599Z,6.70
2022-08-17T21:58:14.827Z,6.38
2022-08-17T22:00:48.944Z,7.20
2022-08-17T22:03:31.172Z,7.82
2022-08-17T22:06:00.815Z,7.80
2022-08-17T22:08:32.164Z,7.82
2022-08-17T22:11:08.542Z,7.78
2022-08-17T22:13:43.263Z,8.10
2022-08-17T22:16:28.757Z,8.75
2022-08-17T22:19:05.064Z,7.20
2022-08-17T22:21:41.058Z,6.85
2022-08-17T22:24:22.754Z,8.55
2022-08-17T22:27:09.308Z,7.28
2022-08-17T22:30:01.486Z,8.43
2022-08-17T22:32:57.148Z,9.02
2022-08-17T22:36:07.733Z,8.20
2022-08-17T22:38:39.747Z,8.80
2022-08-17T22:41:36.076Z,8.57
2022-08-17T22:44:14.975Z,7.50
2022-08-17T22:47:07.455Z,8.20
2022-08-17T22:49:59.526Z,7.82
2022-08-17T22:52:58.879Z,8.25
2022-08-17T22:55:46.845Z,7.45
2022-08-17T22:58:37.761Z,8.55
2022-08-17T23:01:52.168Z,7.05
2022-08-17T23:04:41.351Z,5.63
2022-08-17T23:07:13.283Z,5.82
2022-08-17T23:09:43.943Z,5.85
2022-08-17T23:12:21.247Z,6.68
2022-08-17T23:14:54.891Z,7.47
2022-08-17T23:17:35.102Z,7.32
2022-08-17T23:20:14.500Z,7.95
2022-08-17T23:22:52.344Z,8.05
2022-08-17T23:25:54.178Z,8.43
2022-08-17T23:28:24.861Z,7.55
2022-08-17T23:30:55.139Z,7.93
2022-08-17T23:33:32.702Z,7.68
2022-08-17T23:36:08.514Z,8.05
2022-08-17T23:38:38.598Z,7.75
2022-08-17T23:41:15.108Z,8.18
2022-08-17T23:43:51.295Z,8.32
2022-08-17T23:46:26.907Z,8.00
2022-08-17T23:49:00.706Z,8.00
2022-08-17T23:51:34.746Z,7.85
2022-08-17T23:54:08.378Z,7.85
2022-08-17T23:56:46.341Z,7.10
2022-08-17T23:59:16.408Z,7.88
